sensor_id;sensor_type;location;lat;lon;timestamp;P1;durP1;ratioP1;P2;durP2;ratioP2
65581;SDS011;52231;40.090;18.348;2022-08-25T00:02:10;28.85;;;11.63;;
65581;SDS011;52231;40.090;18.348;2022-08-25T00:04:38;25.02;;;11.95;;
65581;SDS011;52231;40.090;18.348;2022-08-25T00:09:34;21.77;;;11.05;;
65581;SDS011;52231;40.090;18.348;2022-08-25T00:12:03;23.00;;;11.23;;
65581;SDS011;52231;40.090;18.348;2022-08-25T00:14:33;25.10;;;10.88;;
65581;SDS011;52231;40.090;18.348;2022-08-25T00:17:04;23.80;;;11.50;;
65581;SDS011;52231;40.090;18.348;2022-08-25T00:19:34;26.90;;;10.40;;
65581;SDS011;52231;40.090;18.348;2022-08-25T00:22:05;24.80;;;10.55;;
65581;SDS011;52231;40.090;18.348;2022-08-25T00:24:34;22.95;;;10.70;;
65581;SDS011;52231;40.090;18.348;2022-08-25T00:27:04;22.35;;;10.80;;
65581;SDS011;52231;40.090;18.348;2022-08-25T00:29:34;20.83;;;9.75;;
65581;SDS011;52231;40.090;18.348;2022-08-25T00:32:04;21.48;;;10.00;;
65581;SDS011;52231;40.090;18.348;2022-08-25T00:34:34;26.63;;;9.95;;
65581;SDS011;52231;40.090;18.348;2022-08-25T00:37:23;23.13;;;9.45;;
65581;SDS011;52231;40.090;18.348;2022-08-25T00:39:51;21.05;;;9.60;;
65581;SDS011;52231;40.090;18.348;2022-08-25T00:42:19;22.83;;;9.45;;
65581;SDS011;52231;40.090;18.348;2022-08-25T00:44:47;24.63;;;9.07;;
65581;SDS011;52231;40.090;18.348;2022-08-25T00:47:16;24.90;;;9.82;;
65581;SDS011;52231;40.090;18.348;2022-08-25T00:49:48;18.73;;;8.48;;
65581;SDS011;52231;40.090;18.348;2022-08-25T00:52:25;21.25;;;8.82;;
65581;SDS011;52231;40.090;18.348;2022-08-25T00:55:10;23.17;;;9.07;;
65581;SDS011;52231;40.090;18.348;2022-08-25T00:57:43;21.23;;;8.93;;
65581;SDS011;52231;40.090;18.348;2022-08-25T01:00:26;23.92;;;8.75;;
65581;SDS011;52231;40.090;18.348;2022-08-25T01:02:57;22.48;;;8.45;;
65581;SDS011;52231;40.090;18.348;2022-08-25T01:05:26;23.02;;;8.57;;
65581;SDS011;52231;40.090;18.348;2022-08-25T01:07:57;21.42;;;8.07;;
65581;SDS011;52231;40.090;18.348;2022-08-25T01:10:29;18.35;;;7.43;;
65581;SDS011;52231;40.090;18.348;2022-08-25T01:13:05;19.08;;;8.25;;
65581;SDS011;52231;40.090;18.348;2022-08-25T01:15:46;19.73;;;7.55;;
65581;SDS011;52231;40.090;18.348;2022-08-25T01:18:15;18.08;;;8.25;;
65581;SDS011;52231;40.090;18.348;2022-08-25T01:20:47;18.02;;;8.20;;
65581;SDS011;52231;40.090;18.348;2022-08-25T01:23:16;21.58;;;7.18;;
65581;SDS011;52231;40.090;18.348;2022-08-25T01:26:01;19.52;;;7.82;;
65581;SDS011;52231;40.090;18.348;2022-08-25T01:28:49;18.02;;;7.03;;
65581;SDS011;52231;40.090;18.348;2022-08-25T01:31:37;21.02;;;7.38;;
65581;SDS011;52231;40.090;18.348;2022-08-25T01:34:25;21.63;;;7.65;;
65581;SDS011;52231;40.090;18.348;2022-08-25T01:36:56;20.40;;;7.90;;
65581;SDS011;52231;40.090;18.348;2022-08-25T01:39:44;17.10;;;5.97;;
65581;SDS011;52231;40.090;18.348;2022-08-25T01:45:35;22.30;;;7.63;;
65581;SDS011;52231;40.090;18.348;2022-08-25T01:48:05;18.50;;;6.55;;
65581;SDS011;52231;40.090;18.348;2022-08-25T01:50:34;21.13;;;7.00;;
65581;SDS011;52231;40.090;18.348;2022-08-25T01:55:53;19.70;;;7.22;;
65581;SDS011;52231;40.090;18.348;2022-08-25T01:58:29;18.08;;;6.68;;
65581;SDS011;52231;40.090;18.348;2022-08-25T02:01:19;15.57;;;6.28;;
65581;SDS011;52231;40.090;18.348;2022-08-25T02:03:50;15.20;;;6.50;;
65581;SDS011;52231;40.090;18.348;2022-08-25T02:06:24;18.23;;;6.03;;
65581;SDS011;52231;40.090;18.348;2022-08-25T02:08:59;18.98;;;5.78;;
65581;SDS011;52231;40.090;18.348;2022-08-25T02:11:49;14.85;;;6.07;;
65581;SDS011;52231;40.090;18.348;2022-08-25T02:14:18;17.30;;;6.20;;
65581;SDS011;52231;40.090;18.348;2022-08-25T02:16:47;18.92;;;6.35;;
65581;SDS011;52231;40.090;18.348;2022-08-25T02:19:17;19.92;;;5.93;;
65581;SDS011;52231;40.090;18.348;2022-08-25T02:21:48;17.08;;;5.78;;
65581;SDS011;52231;40.090;18.348;2022-08-25T02:24:16;17.83;;;4.85;;
65581;SDS011;52231;40.090;18.348;2022-08-25T02:26:46;12.25;;;4.82;;
65581;SDS011;52231;40.090;18.348;2022-08-25T02:29:15;15.48;;;5.03;;
65581;SDS011;52231;40.090;18.348;2022-08-25T02:31:44;15.10;;;5.07;;
65581;SDS011;52231;40.090;18.348;2022-08-25T02:34:12;13.27;;;4.25;;
65581;SDS011;52231;40.090;18.348;2022-08-25T02:36:41;12.77;;;4.90;;
65581;SDS011;52231;40.090;18.348;2022-08-25T02:39:10;16.15;;;4.47;;
65581;SDS011;52231;40.090;18.348;2022-08-25T02:41:39;18.65;;;4.88;;
65581;SDS011;52231;40.090;18.348;2022-08-25T02:44:07;16.23;;;4.78;;
65581;SDS011;52231;40.090;18.348;2022-08-25T02:46:36;16.88;;;4.72;;
65581;SDS011;52231;40.090;18.348;2022-08-25T02:49:05;12.63;;;4.55;;
65581;SDS011;52231;40.090;18.348;2022-08-25T02:51:34;16.55;;;5.10;;
65581;SDS011;52231;40.090;18.348;2022-08-25T02:54:02;13.25;;;4.28;;
65581;SDS011;52231;40.090;18.348;2022-08-25T02:56:32;15.65;;;4.38;;
65581;SDS011;52231;40.090;18.348;2022-08-25T02:59:01;15.90;;;4.32;;
65581;SDS011;52231;40.090;18.348;2022-08-25T03:01:30;16.80;;;4.20;;
65581;SDS011;52231;40.090;18.348;2022-08-25T03:03:59;14.68;;;3.80;;
65581;SDS011;52231;40.090;18.348;2022-08-25T03:06:28;10.77;;;3.83;;
65581;SDS011;52231;40.090;18.348;2022-08-25T03:08:57;15.25;;;4.28;;
65581;SDS011;52231;40.090;18.348;2022-08-25T03:11:25;18.63;;;4.32;;
65581;SDS011;52231;40.090;18.348;2022-08-25T03:13:54;15.27;;;4.35;;
65581;SDS011;52231;40.090;18.348;2022-08-25T03:16:23;14.85;;;4.50;;
65581;SDS011;52231;40.090;18.348;2022-08-25T03:18:51;14.75;;;4.40;;
65581;SDS011;52231;40.090;18.348;2022-08-25T03:21:19;18.67;;;4.95;;
65581;SDS011;52231;40.090;18.348;2022-08-25T03:23:47;15.95;;;4.57;;
65581;SDS011;52231;40.090;18.348;2022-08-25T03:26:15;17.00;;;4.47;;
65581;SDS011;52231;40.090;18.348;2022-08-25T03:29:25;13.38;;;3.95;;
65581;SDS011;52231;40.090;18.348;2022-08-25T03:31:59;18.65;;;4.28;;
65581;SDS011;52231;40.090;18.348;2022-08-25T03:34:28;19.85;;;3.97;;
65581;SDS011;52231;40.090;18.348;2022-08-25T03:36:57;20.48;;;4.65;;
65581;SDS011;52231;40.090;18.348;2022-08-25T03:39:26;16.60;;;4.32;;
65581;SDS011;52231;40.090;18.348;2022-08-25T03:41:55;16.73;;;4.25;;
65581;SDS011;52231;40.090;18.348;2022-08-25T03:44:23;13.65;;;3.72;;
65581;SDS011;52231;40.090;18.348;2022-08-25T03:46:52;12.55;;;4.15;;
65581;SDS011;52231;40.090;18.348;2022-08-25T03:51:50;11.55;;;3.60;;
65581;SDS011;52231;40.090;18.348;2022-08-25T03:54:21;11.57;;;4.05;;
65581;SDS011;52231;40.090;18.348;2022-08-25T03:56:52;16.17;;;4.25;;
65581;SDS011;52231;40.090;18.348;2022-08-25T03:59:20;15.60;;;3.42;;
65581;SDS011;52231;40.090;18.348;2022-08-25T04:01:48;12.80;;;4.05;;
65581;SDS011;52231;40.090;18.348;2022-08-25T04:04:21;22.50;;;4.80;;
65581;SDS011;52231;40.090;18.348;2022-08-25T04:06:49;14.88;;;4.30;;
65581;SDS011;52231;40.090;18.348;2022-08-25T04:09:17;17.52;;;4.80;;
65581;SDS011;52231;40.090;18.348;2022-08-25T04:11:46;16.60;;;4.10;;
65581;SDS011;52231;40.090;18.348;2022-08-25T04:14:14;15.70;;;4.22;;
65581;SDS011;52231;40.090;18.348;2022-08-25T04:16:42;17.05;;;4.32;;
65581;SDS011;52231;40.090;18.348;2022-08-25T04:19:12;17.20;;;4.43;;
65581;SDS011;52231;40.090;18.348;2022-08-25T04:21:40;15.05;;;3.92;;
65581;SDS011;52231;40.090;18.348;2022-08-25T04:24:09;16.13;;;4.40;;
65581;SDS011;52231;40.090;18.348;2022-08-25T04:26:57;17.08;;;4.50;;
65581;SDS011;52231;40.090;18.348;2022-08-25T04:29:25;16.25;;;4.32;;
65581;SDS011;52231;40.090;18.348;2022-08-25T04:31:54;15.90;;;4.05;;
65581;SDS011;52231;40.090;18.348;2022-08-25T04:34:23;14.65;;;5.15;;
65581;SDS011;52231;40.090;18.348;2022-08-25T04:36:52;15.88;;;4.15;;
65581;SDS011;52231;40.090;18.348;2022-08-25T04:41:48;17.40;;;4.68;;
65581;SDS011;52231;40.090;18.348;2022-08-25T04:44:17;18.88;;;4.53;;
65581;SDS011;52231;40.090;18.348;2022-08-25T04:46:45;14.95;;;4.32;;
65581;SDS011;52231;40.090;18.348;2022-08-25T04:51:42;14.98;;;4.75;;
65581;SDS011;52231;40.090;18.348;2022-08-25T04:54:11;18.45;;;4.63;;
65581;SDS011;52231;40.090;18.348;2022-08-25T04:56:43;14.15;;;4.80;;
65581;SDS011;52231;40.090;18.348;2022-08-25T04:59:12;16.98;;;5.10;;
65581;SDS011;52231;40.090;18.348;2022-08-25T05:01:42;19.08;;;5.47;;
65581;SDS011;52231;40.090;18.348;2022-08-25T05:04:14;15.93;;;5.68;;
65581;SDS011;52231;40.090;18.348;2022-08-25T05:06:43;16.83;;;5.80;;
65581;SDS011;52231;40.090;18.348;2022-08-25T05:09:11;18.73;;;6.45;;
65581;SDS011;52231;40.090;18.348;2022-08-25T05:11:39;18.65;;;6.63;;
65581;SDS011;52231;40.090;18.348;2022-08-25T05:14:08;17.05;;;7.25;;
65581;SDS011;52231;40.090;18.348;2022-08-25T05:16:38;17.77;;;7.20;;
65581;SDS011;52231;40.090;18.348;2022-08-25T05:19:06;18.15;;;7.57;;
65581;SDS011;52231;40.090;18.348;2022-08-25T05:24:04;16.85;;;6.28;;
65581;SDS011;52231;40.090;18.348;2022-08-25T05:26:33;20.20;;;6.20;;
65581;SDS011;52231;40.090;18.348;2022-08-25T05:29:03;19.65;;;6.32;;
65581;SDS011;52231;40.090;18.348;2022-08-25T05:31:32;17.45;;;6.03;;
65581;SDS011;52231;40.090;18.348;2022-08-25T05:34:05;17.52;;;6.18;;
65581;SDS011;52231;40.090;18.348;2022-08-25T05:36:36;22.05;;;5.53;;
65581;SDS011;52231;40.090;18.348;2022-08-25T05:39:09;17.95;;;4.93;;
65581;SDS011;52231;40.090;18.348;2022-08-25T05:44:05;17.63;;;5.63;;
65581;SDS011;52231;40.090;18.348;2022-08-25T05:46:34;16.23;;;4.85;;
65581;SDS011;52231;40.090;18.348;2022-08-25T05:51:30;18.67;;;5.43;;
65581;SDS011;52231;40.090;18.348;2022-08-25T05:56:26;15.07;;;4.80;;
65581;SDS011;52231;40.090;18.348;2022-08-25T05:58:54;15.55;;;5.00;;
65581;SDS011;52231;40.090;18.348;2022-08-25T06:01:26;13.20;;;5.15;;
65581;SDS011;52231;40.090;18.348;2022-08-25T06:04:14;13.07;;;4.53;;
65581;SDS011;52231;40.090;18.348;2022-08-25T06:06:44;16.15;;;4.65;;
65581;SDS011;52231;40.090;18.348;2022-08-25T06:09:13;17.77;;;5.03;;
65581;SDS011;52231;40.090;18.348;2022-08-25T06:11:41;16.25;;;5.13;;
65581;SDS011;52231;40.090;18.348;2022-08-25T06:16:37;13.43;;;4.80;;
65581;SDS011;52231;40.090;18.348;2022-08-25T06:19:07;14.75;;;4.60;;
65581;SDS011;52231;40.090;18.348;2022-08-25T06:21:55;17.00;;;5.03;;
65581;SDS011;52231;40.090;18.348;2022-08-25T06:24:25;13.52;;;4.93;;
65581;SDS011;52231;40.090;18.348;2022-08-25T06:26:55;15.85;;;5.25;;
65581;SDS011;52231;40.090;18.348;2022-08-25T06:29:23;16.10;;;4.95;;
65581;SDS011;52231;40.090;18.348;2022-08-25T06:31:52;13.88;;;4.57;;
65581;SDS011;52231;40.090;18.348;2022-08-25T06:34:20;18.83;;;4.88;;
65581;SDS011;52231;40.090;18.348;2022-08-25T06:36:49;14.70;;;4.97;;
65581;SDS011;52231;40.090;18.348;2022-08-25T06:39:18;15.73;;;5.28;;
65581;SDS011;52231;40.090;18.348;2022-08-25T06:41:50;16.80;;;4.63;;
65581;SDS011;52231;40.090;18.348;2022-08-25T06:44:25;14.50;;;4.40;;
65581;SDS011;52231;40.090;18.348;2022-08-25T06:46:54;18.25;;;4.50;;
65581;SDS011;52231;40.090;18.348;2022-08-25T06:49:22;13.50;;;4.95;;
65581;SDS011;52231;40.090;18.348;2022-08-25T06:51:54;16.67;;;5.00;;
65581;SDS011;52231;40.090;18.348;2022-08-25T06:56:50;17.52;;;5.00;;
65581;SDS011;52231;40.090;18.348;2022-08-25T06:59:18;16.23;;;5.68;;
65581;SDS011;52231;40.090;18.348;2022-08-25T07:01:47;16.38;;;5.78;;
65581;SDS011;52231;40.090;18.348;2022-08-25T07:04:15;16.75;;;5.00;;
65581;SDS011;52231;40.090;18.348;2022-08-25T07:06:43;16.15;;;5.15;;
65581;SDS011;52231;40.090;18.348;2022-08-25T07:09:12;15.77;;;4.70;;
65581;SDS011;52231;40.090;18.348;2022-08-25T07:11:40;14.32;;;5.13;;
65581;SDS011;52231;40.090;18.348;2022-08-25T07:14:10;18.98;;;4.97;;
65581;SDS011;52231;40.090;18.348;2022-08-25T07:16:58;14.77;;;4.75;;
65581;SDS011;52231;40.090;18.348;2022-08-25T07:19:27;15.45;;;5.53;;
65581;SDS011;52231;40.090;18.348;2022-08-25T07:21:56;14.07;;;5.40;;
65581;SDS011;52231;40.090;18.348;2022-08-25T07:24:25;14.73;;;6.00;;
65581;SDS011;52231;40.090;18.348;2022-08-25T07:26:53;15.57;;;5.13;;
65581;SDS011;52231;40.090;18.348;2022-08-25T07:36:41;15.38;;;5.93;;
65581;SDS011;52231;40.090;18.348;2022-08-25T07:39:09;14.80;;;5.43;;
65581;SDS011;52231;40.090;18.348;2022-08-25T07:41:39;14.45;;;6.10;;
65581;SDS011;52231;40.090;18.348;2022-08-25T07:44:09;15.07;;;6.25;;
65581;SDS011;52231;40.090;18.348;2022-08-25T07:46:38;18.58;;;6.32;;
65581;SDS011;52231;40.090;18.348;2022-08-25T07:49:07;15.48;;;6.45;;
65581;SDS011;52231;40.090;18.348;2022-08-25T07:51:35;16.63;;;7.32;;
65581;SDS011;52231;40.090;18.348;2022-08-25T07:54:04;13.65;;;6.18;;
65581;SDS011;52231;40.090;18.348;2022-08-25T07:56:32;14.95;;;6.82;;
65581;SDS011;52231;40.090;18.348;2022-08-25T07:59:00;16.10;;;6.30;;
65581;SDS011;52231;40.090;18.348;2022-08-25T08:01:29;18.30;;;6.05;;
65581;SDS011;52231;40.090;18.348;2022-08-25T08:03:57;15.18;;;6.30;;
65581;SDS011;52231;40.090;18.348;2022-08-25T08:06:26;14.98;;;5.45;;
65581;SDS011;52231;40.090;18.348;2022-08-25T08:08:55;14.77;;;6.00;;
65581;SDS011;52231;40.090;18.348;2022-08-25T08:11:25;15.95;;;5.95;;
65581;SDS011;52231;40.090;18.348;2022-08-25T08:13:55;15.98;;;6.00;;
65581;SDS011;52231;40.090;18.348;2022-08-25T08:16:25;14.50;;;5.80;;
65581;SDS011;52231;40.090;18.348;2022-08-25T08:18:56;14.25;;;6.47;;
65581;SDS011;52231;40.090;18.348;2022-08-25T08:21:30;16.02;;;6.60;;
65581;SDS011;52231;40.090;18.348;2022-08-25T08:26:31;15.40;;;6.95;;
65581;SDS011;52231;40.090;18.348;2022-08-25T08:29:14;17.05;;;8.52;;
65581;SDS011;52231;40.090;18.348;2022-08-25T08:31:42;16.50;;;8.13;;
65581;SDS011;52231;40.090;18.348;2022-08-25T08:34:11;14.95;;;7.43;;
65581;SDS011;52231;40.090;18.348;2022-08-25T08:36:40;15.45;;;7.82;;
65581;SDS011;52231;40.090;18.348;2022-08-25T08:39:08;16.23;;;8.30;;
65581;SDS011;52231;40.090;18.348;2022-08-25T08:47:57;14.63;;;7.10;;
65581;SDS011;52231;40.090;18.348;2022-08-25T08:53:56;15.65;;;6.88;;
65581;SDS011;52231;40.090;18.348;2022-08-25T08:56:39;15.25;;;6.50;;
65581;SDS011;52231;40.090;18.348;2022-08-25T08:59:12;17.27;;;7.18;;
65581;SDS011;52231;40.090;18.348;2022-08-25T09:01:49;19.13;;;7.80;;
65581;SDS011;52231;40.090;18.348;2022-08-25T09:07:30;17.95;;;7.78;;
65581;SDS011;52231;40.090;18.348;2022-08-25T09:13:39;14.98;;;7.45;;
65581;SDS011;52231;40.090;18.348;2022-08-25T09:20:28;15.45;;;8.02;;
65581;SDS011;52231;40.090;18.348;2022-08-25T09:25:32;16.58;;;7.38;;
65581;SDS011;52231;40.090;18.348;2022-08-25T09:28:19;14.75;;;6.60;;
65581;SDS011;52231;40.090;18.348;2022-08-25T09:31:07;15.55;;;6.80;;
65581;SDS011;52231;40.090;18.348;2022-08-25T09:33:56;13.82;;;6.63;;
65581;SDS011;52231;40.090;18.348;2022-08-25T09:36:26;12.88;;;5.72;;
65581;SDS011;52231;40.090;18.348;2022-08-25T09:38:55;13.98;;;6.30;;
65581;SDS011;52231;40.090;18.348;2022-08-25T09:49:58;13.73;;;5.55;;
65581;SDS011;52231;40.090;18.348;2022-08-25T10:00:30;14.73;;;6.40;;
65581;SDS011;52231;40.090;18.348;2022-08-25T10:05:31;12.30;;;6.18;;
65581;SDS011;52231;40.090;18.348;2022-08-25T10:08:03;15.77;;;6.20;;
65581;SDS011;52231;40.090;18.348;2022-08-25T10:10:44;15.10;;;6.20;;
65581;SDS011;52231;40.090;18.348;2022-08-25T10:13:20;13.13;;;6.22;;
65581;SDS011;52231;40.090;18.348;2022-08-25T10:16:01;12.48;;;5.85;;
65581;SDS011;52231;40.090;18.348;2022-08-25T10:21:32;13.88;;;6.38;;
65581;SDS011;52231;40.090;18.348;2022-08-25T10:24:00;13.52;;;5.32;;
65581;SDS011;52231;40.090;18.348;2022-08-25T10:29:34;12.80;;;5.82;;
65581;SDS011;52231;40.090;18.348;2022-08-25T10:32:44;14.77;;;6.15;;
65581;SDS011;52231;40.090;18.348;2022-08-25T10:36:22;14.02;;;5.90;;
65581;SDS011;52231;40.090;18.348;2022-08-25T10:39:06;13.30;;;6.47;;
65581;SDS011;52231;40.090;18.348;2022-08-25T10:41:51;17.30;;;5.85;;
65581;SDS011;52231;40.090;18.348;2022-08-25T10:44:34;12.60;;;6.60;;
65581;SDS011;52231;40.090;18.348;2022-08-25T10:47:46;16.85;;;7.25;;
65581;SDS011;52231;40.090;18.348;2022-08-25T10:50:28;14.95;;;7.25;;
65581;SDS011;52231;40.090;18.348;2022-08-25T11:04:36;19.85;;;9.00;;
65581;SDS011;52231;40.090;18.348;2022-08-25T11:07:09;20.48;;;10.10;;
65581;SDS011;52231;40.090;18.348;2022-08-25T11:10:10;21.50;;;8.77;;
65581;SDS011;52231;40.090;18.348;2022-08-25T11:12:44;18.58;;;8.15;;
65581;SDS011;52231;40.090;18.348;2022-08-25T11:15:21;15.63;;;6.88;;
65581;SDS011;52231;40.090;18.348;2022-08-25T11:18:04;18.88;;;7.43;;
65581;SDS011;52231;40.090;18.348;2022-08-25T11:21:06;15.68;;;7.15;;
65581;SDS011;52231;40.090;18.348;2022-08-25T11:23:40;18.85;;;7.85;;
65581;SDS011;52231;40.090;18.348;2022-08-25T11:26:17;17.40;;;7.75;;
65581;SDS011;52231;40.090;18.348;2022-08-25T11:29:02;16.15;;;8.10;;
65581;SDS011;52231;40.090;18.348;2022-08-25T11:31:45;16.88;;;7.95;;
65581;SDS011;52231;40.090;18.348;2022-08-25T11:34:19;16.00;;;6.78;;
65581;SDS011;52231;40.090;18.348;2022-08-25T11:37:10;14.40;;;6.97;;
65581;SDS011;52231;40.090;18.348;2022-08-25T11:47:38;13.50;;;6.68;;
65581;SDS011;52231;40.090;18.348;2022-08-25T11:50:22;12.13;;;5.22;;
65581;SDS011;52231;40.090;18.348;2022-08-25T11:52:55;10.90;;;5.05;;
65581;SDS011;52231;40.090;18.348;2022-08-25T12:17:41;7.78;;;3.40;;
65581;SDS011;52231;40.090;18.348;2022-08-25T12:20:10;8.50;;;3.50;;
65581;SDS011;52231;40.090;18.348;2022-08-25T12:22:39;7.45;;;3.17;;
65581;SDS011;52231;40.090;18.348;2022-08-25T12:25:30;8.13;;;3.05;;
65581;SDS011;52231;40.090;18.348;2022-08-25T12:28:07;9.27;;;3.20;;
65581;SDS011;52231;40.090;18.348;2022-08-25T12:30:55;7.50;;;3.50;;
65581;SDS011;52231;40.090;18.348;2022-08-25T12:36:14;8.55;;;3.30;;
65581;SDS011;52231;40.090;18.348;2022-08-25T12:42:02;9.45;;;4.70;;
65581;SDS011;52231;40.090;18.348;2022-08-25T12:44:35;11.13;;;4.95;;
65581;SDS011;52231;40.090;18.348;2022-08-25T12:47:24;14.77;;;6.60;;
65581;SDS011;52231;40.090;18.348;2022-08-25T12:50:43;12.88;;;6.50;;
65581;SDS011;52231;40.090;18.348;2022-08-25T12:53:17;11.88;;;4.75;;
65581;SDS011;52231;40.090;18.348;2022-08-25T12:55:52;10.95;;;5.32;;
65581;SDS011;52231;40.090;18.348;2022-08-25T12:58:28;13.55;;;5.95;;
65581;SDS011;52231;40.090;18.348;2022-08-25T13:12:28;17.27;;;7.82;;
65581;SDS011;52231;40.090;18.348;2022-08-25T13:15:10;18.45;;;7.43;;
65581;SDS011;52231;40.090;18.348;2022-08-25T13:17:41;20.27;;;7.88;;
65581;SDS011;52231;40.090;18.348;2022-08-25T13:20:11;17.75;;;8.15;;
65581;SDS011;52231;40.090;18.348;2022-08-25T13:22:40;14.43;;;6.38;;
65581;SDS011;52231;40.090;18.348;2022-08-25T13:25:18;15.07;;;6.97;;
65581;SDS011;52231;40.090;18.348;2022-08-25T13:27:58;15.93;;;7.70;;
65581;SDS011;52231;40.090;18.348;2022-08-25T13:30:31;14.50;;;6.35;;
65581;SDS011;52231;40.090;18.348;2022-08-25T13:33:17;14.35;;;6.72;;
65581;SDS011;52231;40.090;18.348;2022-08-25T13:35:49;14.38;;;6.47;;
65581;SDS011;52231;40.090;18.348;2022-08-25T13:38:40;16.00;;;6.45;;
65581;SDS011;52231;40.090;18.348;2022-08-25T13:41:29;15.63;;;6.90;;
65581;SDS011;52231;40.090;18.348;2022-08-25T13:43:57;16.90;;;6.20;;
65581;SDS011;52231;40.090;18.348;2022-08-25T13:46:27;13.27;;;6.50;;
65581;SDS011;52231;40.090;18.348;2022-08-25T13:49:05;18.52;;;7.13;;
65581;SDS011;52231;40.090;18.348;2022-08-25T13:51:36;14.52;;;6.35;;
65581;SDS011;52231;40.090;18.348;2022-08-25T13:54:07;14.15;;;6.35;;
65581;SDS011;52231;40.090;18.348;2022-08-25T13:56:50;14.75;;;6.70;;
65581;SDS011;52231;40.090;18.348;2022-08-25T14:01:57;14.60;;;6.45;;
65581;SDS011;52231;40.090;18.348;2022-08-25T14:09:39;16.70;;;5.90;;
65581;SDS011;52231;40.090;18.348;2022-08-25T14:15:11;12.88;;;5.78;;
65581;SDS011;52231;40.090;18.348;2022-08-25T14:17:41;12.27;;;5.43;;
65581;SDS011;52231;40.090;18.348;2022-08-25T14:20:20;12.90;;;5.30;;
65581;SDS011;52231;40.090;18.348;2022-08-25T14:23:14;16.92;;;6.18;;
65581;SDS011;52231;40.090;18.348;2022-08-25T14:25:46;12.45;;;5.32;;
65581;SDS011;52231;40.090;18.348;2022-08-25T14:28:18;13.43;;;4.93;;
65581;SDS011;52231;40.090;18.348;2022-08-25T14:30:50;13.48;;;5.03;;
65581;SDS011;52231;40.090;18.348;2022-08-25T14:33:22;15.98;;;5.97;;
65581;SDS011;52231;40.090;18.348;2022-08-25T14:36:01;13.90;;;5.80;;
65581;SDS011;52231;40.090;18.348;2022-08-25T14:38:32;13.95;;;5.50;;
65581;SDS011;52231;40.090;18.348;2022-08-25T14:41:00;12.98;;;5.93;;
65581;SDS011;52231;40.090;18.348;2022-08-25T14:43:29;14.95;;;5.75;;
65581;SDS011;52231;40.090;18.348;2022-08-25T14:45:57;13.88;;;5.78;;
65581;SDS011;52231;40.090;18.348;2022-08-25T14:48:30;13.27;;;5.22;;
65581;SDS011;52231;40.090;18.348;2022-08-25T14:51:02;13.18;;;5.70;;
65581;SDS011;52231;40.090;18.348;2022-08-25T14:53:31;12.18;;;5.85;;
65581;SDS011;52231;40.090;18.348;2022-08-25T14:56:00;13.13;;;6.35;;
65581;SDS011;52231;40.090;18.348;2022-08-25T14:58:28;14.32;;;5.70;;
65581;SDS011;52231;40.090;18.348;2022-08-25T15:00:57;14.95;;;5.80;;
65581;SDS011;52231;40.090;18.348;2022-08-25T15:03:27;13.73;;;6.15;;
65581;SDS011;52231;40.090;18.348;2022-08-25T15:05:59;12.73;;;6.18;;
65581;SDS011;52231;40.090;18.348;2022-08-25T15:08:28;14.95;;;6.80;;
65581;SDS011;52231;40.090;18.348;2022-08-25T15:11:15;13.25;;;6.65;;
65581;SDS011;52231;40.090;18.348;2022-08-25T15:13:44;12.63;;;6.47;;
65581;SDS011;52231;40.090;18.348;2022-08-25T15:16:44;10.75;;;5.47;;
65581;SDS011;52231;40.090;18.348;2022-08-25T15:19:15;14.77;;;6.57;;
65581;SDS011;52231;40.090;18.348;2022-08-25T15:21:46;12.05;;;6.45;;
65581;SDS011;52231;40.090;18.348;2022-08-25T15:24:15;15.98;;;7.20;;
65581;SDS011;52231;40.090;18.348;2022-08-25T15:26:49;22.10;;;6.70;;
65581;SDS011;52231;40.090;18.348;2022-08-25T15:29:21;14.32;;;6.75;;
65581;SDS011;52231;40.090;18.348;2022-08-25T15:31:50;14.57;;;6.80;;
65581;SDS011;52231;40.090;18.348;2022-08-25T15:34:19;15.45;;;7.65;;
65581;SDS011;52231;40.090;18.348;2022-08-25T15:36:47;16.40;;;6.85;;
65581;SDS011;52231;40.090;18.348;2022-08-25T15:39:16;15.40;;;7.40;;
65581;SDS011;52231;40.090;18.348;2022-08-25T15:41:46;14.05;;;6.47;;
65581;SDS011;52231;40.090;18.348;2022-08-25T15:44:23;14.05;;;6.43;;
65581;SDS011;52231;40.090;18.348;2022-08-25T15:46:55;12.25;;;6.30;;
65581;SDS011;52231;40.090;18.348;2022-08-25T15:49:27;18.45;;;7.03;;
65581;SDS011;52231;40.090;18.348;2022-08-25T15:51:55;16.10;;;6.53;;
65581;SDS011;52231;40.090;18.348;2022-08-25T15:54:23;14.20;;;6.60;;
65581;SDS011;52231;40.090;18.348;2022-08-25T15:56:54;15.80;;;6.65;;
65581;SDS011;52231;40.090;18.348;2022-08-25T15:59:24;14.15;;;7.03;;
65581;SDS011;52231;40.090;18.348;2022-08-25T16:01:52;14.88;;;6.82;;
65581;SDS011;52231;40.090;18.348;2022-08-25T16:04:22;15.65;;;7.28;;
65581;SDS011;52231;40.090;18.348;2022-08-25T16:06:56;15.40;;;6.45;;
65581;SDS011;52231;40.090;18.348;2022-08-25T16:09:26;18.30;;;8.20;;
65581;SDS011;52231;40.090;18.348;2022-08-25T16:11:55;17.08;;;8.35;;
65581;SDS011;52231;40.090;18.348;2022-08-25T16:14:25;14.30;;;7.63;;
65581;SDS011;52231;40.090;18.348;2022-08-25T16:16:54;16.42;;;7.10;;
65581;SDS011;52231;40.090;18.348;2022-08-25T16:19:22;17.58;;;7.30;;
65581;SDS011;52231;40.090;18.348;2022-08-25T16:21:53;19.92;;;7.78;;
65581;SDS011;52231;40.090;18.348;2022-08-25T16:24:21;17.08;;;7.70;;
65581;SDS011;52231;40.090;18.348;2022-08-25T16:26:53;16.08;;;6.88;;
65581;SDS011;52231;40.090;18.348;2022-08-25T16:29:32;15.32;;;8.05;;
65581;SDS011;52231;40.090;18.348;2022-08-25T16:32:04;18.13;;;8.02;;
65581;SDS011;52231;40.090;18.348;2022-08-25T16:34:33;17.08;;;7.93;;
65581;SDS011;52231;40.090;18.348;2022-08-25T16:37:02;15.10;;;6.95;;
65581;SDS011;52231;40.090;18.348;2022-08-25T16:39:32;18.52;;;7.72;;
65581;SDS011;52231;40.090;18.348;2022-08-25T16:42:00;15.60;;;7.25;;
65581;SDS011;52231;40.090;18.348;2022-08-25T16:44:29;15.80;;;7.25;;
65581;SDS011;52231;40.090;18.348;2022-08-25T16:46:59;17.55;;;7.97;;
65581;SDS011;52231;40.090;18.348;2022-08-25T16:49:28;15.60;;;6.80;;
65581;SDS011;52231;40.090;18.348;2022-08-25T16:51:57;31.83;;;15.15;;
65581;SDS011;52231;40.090;18.348;2022-08-25T16:54:28;62.78;;;22.35;;
65581;SDS011;52231;40.090;18.348;2022-08-25T16:57:15;18.88;;;8.32;;
65581;SDS011;52231;40.090;18.348;2022-08-25T16:59:43;24.42;;;10.50;;
65581;SDS011;52231;40.090;18.348;2022-08-25T17:02:11;17.40;;;7.35;;
65581;SDS011;52231;40.090;18.348;2022-08-25T17:04:39;15.52;;;7.40;;
65581;SDS011;52231;40.090;18.348;2022-08-25T17:07:14;18.38;;;6.93;;
65581;SDS011;52231;40.090;18.348;2022-08-25T17:09:43;15.30;;;7.88;;
65581;SDS011;52231;40.090;18.348;2022-08-25T17:12:11;16.83;;;7.20;;
65581;SDS011;52231;40.090;18.348;2022-08-25T17:14:39;18.48;;;7.28;;
65581;SDS011;52231;40.090;18.348;2022-08-25T17:17:07;16.90;;;6.93;;
65581;SDS011;52231;40.090;18.348;2022-08-25T17:19:36;16.33;;;7.30;;
65581;SDS011;52231;40.090;18.348;2022-08-25T17:22:05;16.83;;;6.97;;
65581;SDS011;52231;40.090;18.348;2022-08-25T17:24:34;14.35;;;7.07;;
65581;SDS011;52231;40.090;18.348;2022-08-25T17:27:02;19.05;;;7.75;;
65581;SDS011;52231;40.090;18.348;2022-08-25T17:29:31;16.95;;;7.47;;
65581;SDS011;52231;40.090;18.348;2022-08-25T17:32:00;15.60;;;7.72;;
65581;SDS011;52231;40.090;18.348;2022-08-25T17:34:30;15.43;;;7.93;;